Time;durP1;ratioP1;P1;durP2;ratioP2;P2;SDS_P1;SDS_P2;PMS_P1;PMS_P2;Temp;Humidity;BMP_temperature;BMP_pressure;BME280_temperature;BME280_humidity;BME280_pressure;Samples;Min_cycle;Max_cycle;Signal;HPM_P1;HPM_P2
2022/09/13 00:00:48;;;;;;;8.33;7.53;;;18.30;99.90;;;;;;4935451;29;20484;-77
2022/09/13 00:03:17;;;;;;;8.20;7.50;;;18.30;99.90;;;;;;4936807;29;20458;-77
2022/09/13 00:05:46;;;;;;;8.87;7.07;;;18.30;99.90;;;;;;4935269;29;20455;-77
2022/09/13 00:08:16;;;;;;;8.30;7.60;;;18.30;99.90;;;;;;4935219;29;20458;-77
2022/09/13 00:10:45;;;;;;;8.77;7.97;;;18.30;99.90;;;;;;4935232;29;20838;-77
2022/09/13 00:13:15;;;;;;;8.23;7.43;;;18.30;99.90;;;;;;4935244;29;20989;-77
2022/09/13 00:15:44;;;;;;;7.90;7.20;;;18.30;99.90;;;;;;4935029;29;20430;-77
2022/09/13 00:18:12;;;;;;;7.50;6.80;;;18.30;99.90;;;;;;4935086;29;20796;-77
2022/09/13 00:20:40;;;;;;;8.10;7.07;;;18.30;99.90;;;;;;4934980;29;20476;-77
2022/09/13 00:23:09;;;;;;;7.70;7.10;;;18.30;99.90;;;;;;4934987;29;20479;-77
2022/09/13 00:25:39;;;;;;;10.83;8.87;;;18.30;99.90;;;;;;4934269;29;20454;-77
2022/09/13 00:28:08;;;;;;;8.10;7.40;;;18.30;99.90;;;;;;4934931;29;20430;-77
2022/09/13 00:30:36;;;;;;;8.87;8.07;;;18.30;99.90;;;;;;4935974;29;20945;-77
2022/09/13 00:33:04;;;;;;;9.27;8.33;;;18.30;99.90;;;;;;4936157;29;20494;-77
2022/09/13 00:35:32;;;;;;;10.30;9.40;;;18.30;99.90;;;;;;4934809;29;20459;-77
2022/09/13 00:38:00;;;;;;;10.23;9.33;;;18.30;99.90;;;;;;4935941;29;20446;-77
2022/09/13 00:40:30;;;;;;;10.47;9.47;;;18.30;99.90;;;;;;4935960;29;20986;-77
2022/09/13 00:42:59;;;;;;;11.37;10.37;;;18.20;99.90;;;;;;4936058;29;21033;-77
2022/09/13 00:45:27;;;;;;;13.13;11.83;;;18.20;99.90;;;;;;4934830;29;20807;-77
2022/09/13 00:47:59;;;;;;;13.27;12.07;;;18.20;99.90;;;;;;4936168;29;20454;-77
2022/09/13 00:50:31;;;;;;;12.87;11.77;;;18.20;99.90;;;;;;4934646;29;20443;-77
2022/09/13 00:53:05;;;;;;;13.83;12.60;;;18.20;99.90;;;;;;4934843;29;20447;-77
2022/09/13 00:55:41;;;;;;;12.70;11.50;;;18.10;99.90;;;;;;4934793;29;20444;-78
2022/09/13 00:58:16;;;;;;;12.93;11.73;;;18.10;99.90;;;;;;4936172;29;20470;-77
2022/09/13 01:00:45;;;;;;;14.70;13.30;;;18.10;99.90;;;;;;4935199;29;20474;-78
2022/09/13 01:03:17;;;;;;;15.60;13.97;;;18.10;99.90;;;;;;4935591;29;20529;-79
2022/09/13 01:05:50;;;;;;;14.80;13.40;;;18.10;99.90;;;;;;4937635;29;20424;-78
2022/09/13 01:08:21;;;;;;;14.20;12.93;;;18.00;99.90;;;;;;4936922;29;20545;-78
2022/09/13 01:10:51;;;;;;;13.50;12.20;;;18.00;99.90;;;;;;4937809;29;20822;-78
2022/09/13 01:13:23;;;;;;;14.50;13.10;;;18.00;99.90;;;;;;4937385;29;20448;-78
2022/09/13 01:15:52;;;;;;;14.23;12.80;;;18.00;99.90;;;;;;4937663;29;20402;-78
2022/09/13 01:18:21;;;;;;;15.00;13.60;;;17.90;99.90;;;;;;4936773;29;20898;-79
2022/09/13 01:21:20;;;;;;;15.17;13.77;;;17.90;99.90;;;;;;4937863;29;20466;-79
2022/09/13 01:24:15;;;;;;;14.13;12.93;;;17.90;99.90;;;;;;4936184;29;20422;-79
2022/09/13 01:27:03;;;;;;;13.10;11.87;;;17.90;99.90;;;;;;4936056;29;20440;-78
2022/09/13 01:30:14;;;;;;;15.73;14.33;;;17.90;99.90;;;;;;4936927;29;20409;-79
2022/09/13 01:33:15;;;;;;;16.80;15.10;;;17.80;99.90;;;;;;4878598;29;21094;-78
2022/09/13 01:35:54;;;;;;;14.63;13.33;;;17.80;99.90;;;;;;4936885;29;20489;-78
2022/09/13 01:38:40;;;;;;;16.53;15.03;;;17.80;99.90;;;;;;4939208;29;20899;-78
2022/09/13 01:41:20;;;;;;;14.40;13.17;;;17.80;99.90;;;;;;4940688;29;20471;-79
2022/09/13 01:43:56;;;;;;;14.73;13.43;;;17.80;99.90;;;;;;4939186;29;20455;-78
2022/09/13 01:46:29;;;;;;;16.23;14.67;;;17.80;99.90;;;;;;4938997;29;20538;-78
2022/09/13 01:49:08;;;;;;;16.23;14.90;;;17.80;99.90;;;;;;4938779;29;20441;-78
2022/09/13 01:51:44;;;;;;;15.37;13.97;;;17.80;99.90;;;;;;4938851;29;20557;-78
2022/09/13 01:54:18;;;;;;;15.63;14.13;;;17.70;99.90;;;;;;4940126;29;20398;-78
2022/09/13 01:56:55;;;;;;;17.23;15.43;;;17.70;99.90;;;;;;4940158;29;20989;-78
2022/09/13 01:59:29;;;;;;;16.07;14.67;;;17.70;99.90;;;;;;4938504;29;20425;-78
2022/09/13 02:02:00;;;;;;;15.40;14.10;;;17.70;99.90;;;;;;4939597;29;20475;-78
2022/09/13 02:04:37;;;;;;;16.63;15.20;;;17.70;99.90;;;;;;4939623;29;20430;-78
2022/09/13 02:07:13;;;;;;;16.23;14.83;;;17.70;99.90;;;;;;4937903;29;20418;-78
2022/09/13 02:09:45;;;;;;;17.67;16.07;;;17.70;99.90;;;;;;4937954;29;20973;-78
2022/09/13 02:12:19;;;;;;;17.67;16.07;;;17.60;99.90;;;;;;4937718;29;20538;-78
2022/09/13 02:14:55;;;;;;;17.97;16.37;;;17.60;99.90;;;;;;4939062;29;20404;-78
2022/09/13 02:17:27;;;;;;;18.00;16.37;;;17.60;99.90;;;;;;4937530;29;20467;-78
2022/09/13 02:20:00;;;;;;;18.43;16.73;;;17.60;99.90;;;;;;4937411;29;20422;-78
2022/09/13 02:22:33;;;;;;;17.50;15.70;;;17.60;99.90;;;;;;4938487;29;20463;-78
2022/09/13 02:25:06;;;;;;;17.80;16.10;;;17.60;99.90;;;;;;4937295;29;20454;-78
2022/09/13 02:27:37;;;;;;;18.67;16.77;;;17.60;99.90;;;;;;4939081;29;20398;-78
2022/09/13 02:30:09;;;;;;;18.47;16.77;;;17.60;99.90;;;;;;4937421;29;20444;-78
2022/09/13 02:32:40;;;;;;;20.77;18.87;;;17.70;99.90;;;;;;4937500;29;20467;-78
2022/09/13 02:35:15;;;;;;;20.03;18.23;;;17.50;99.90;;;;;;4937454;29;20418;-78
2022/09/13 02:37:48;;;;;;;21.00;18.90;;;17.50;99.90;;;;;;4939233;29;20495;-78
2022/09/13 02:40:21;;;;;;;19.93;18.10;;;17.50;99.90;;;;;;4939130;29;20439;-78
2022/09/13 02:42:54;;;;;;;20.03;18.33;;;17.50;99.90;;;;;;4937118;29;20490;-78
2022/09/13 02:45:30;;;;;;;18.53;16.90;;;17.50;99.90;;;;;;4937619;29;20443;-78
2022/09/13 02:48:02;;;;;;;20.67;18.60;;;17.50;99.90;;;;;;4936665;29;20429;-78
2022/09/13 02:50:50;;;;;;;20.03;18.23;;;17.50;99.90;;;;;;4938629;29;20514;-78
2022/09/13 02:53:27;;;;;;;19.57;17.77;;;17.50;99.90;;;;;;4938570;29;20410;-78
2022/09/13 02:56:08;;;;;;;20.90;18.80;;;17.50;99.90;;;;;;4937381;29;20426;-78
2022/09/13 02:58:45;;;;;;;21.57;19.50;;;17.50;99.90;;;;;;4936880;29;20472;-78
2022/09/13 03:01:15;;;;;;;22.40;20.30;;;17.50;99.90;;;;;;4937195;29;20464;-78
2022/09/13 03:03:43;;;;;;;21.80;19.73;;;17.50;99.90;;;;;;4938231;29;20461;-78
2022/09/13 03:06:13;;;;;;;21.53;19.53;;;17.50;99.90;;;;;;4936737;29;20441;-78
2022/09/13 03:08:41;;;;;;;19.83;18.03;;;17.50;99.90;;;;;;4936520;29;20447;-78
2022/09/13 03:11:17;;;;;;;20.80;18.93;;;17.40;99.90;;;;;;4936705;29;20470;-78
2022/09/13 03:14:00;;;;;;;21.00;19.20;;;17.40;99.90;;;;;;4937757;29;20497;-78
2022/09/13 03:16:38;;;;;;;21.63;19.77;;;17.40;99.90;;;;;;4936721;29;20418;-78
2022/09/13 03:19:27;;;;;;;21.53;19.63;;;17.40;99.90;;;;;;4938133;29;20539;-78
2022/09/13 03:22:11;;;;;;;22.97;20.67;;;17.40;99.90;;;;;;4937634;29;20475;-78
2022/09/13 03:24:49;;;;;;;22.80;20.70;;;17.40;99.90;;;;;;4936456;29;20499;-78
2022/09/13 03:27:24;;;;;;;21.47;19.53;;;17.40;99.90;;;;;;4936273;29;20517;-78
2022/09/13 03:29:58;;;;;;;22.67;20.50;;;17.40;99.90;;;;;;4937676;29;20518;-78
2022/09/13 03:32:35;;;;;;;23.67;21.30;;;17.40;99.90;;;;;;4937649;29;20966;-78
2022/09/13 03:35:12;;;;;;;24.27;21.87;;;17.40;99.90;;;;;;4936556;29;20455;-78
2022/09/13 03:37:52;;;;;;;24.20;21.63;;;17.40;99.90;;;;;;4937716;29;20479;-78
2022/09/13 03:40:26;;;;;;;23.93;21.77;;;17.40;99.90;;;;;;4936119;29;20865;-79
2022/09/13 03:43:01;;;;;;;28.13;25.30;;;17.40;99.90;;;;;;4936370;29;20569;-78
2022/09/13 03:45:33;;;;;;;24.13;21.97;;;17.40;99.90;;;;;;4936393;29;20466;-78
2022/09/13 03:48:04;;;;;;;26.37;23.83;;;17.40;99.90;;;;;;4935917;29;20888;-78
2022/09/13 03:50:33;;;;;;;25.00;22.60;;;17.40;99.90;;;;;;4935743;29;20476;-78
2022/09/13 03:53:07;;;;;;;25.90;23.57;;;17.40;99.90;;;;;;4935884;29;20455;-78
2022/09/13 03:55:40;;;;;;;26.60;24.00;;;17.40;99.90;;;;;;4935891;29;20421;-78
2022/09/13 03:58:11;;;;;;;27.50;24.93;;;17.40;99.90;;;;;;4937559;29;20822;-78
2022/09/13 04:00:40;;;;;;;27.00;24.57;;;17.40;99.90;;;;;;4935532;29;20506;-78
2022/09/13 04:03:08;;;;;;;27.47;24.77;;;17.30;99.90;;;;;;4935456;29;20444;-78
2022/09/13 04:05:37;;;;;;;28.53;25.83;;;17.40;99.90;;;;;;4935801;29;20430;-78
2022/09/13 04:08:08;;;;;;;26.20;23.73;;;17.40;99.90;;;;;;4935478;29;20836;-78
2022/09/13 04:10:36;;;;;;;29.03;26.53;;;17.40;99.90;;;;;;4935334;28;20469;-78
2022/09/13 04:13:05;;;;;;;26.93;24.37;;;17.40;99.90;;;;;;4935455;29;20451;-78
2022/09/13 04:15:33;;;;;;;28.97;26.10;;;17.40;99.90;;;;;;4935296;29;20455;-78
2022/09/13 04:18:01;;;;;;;28.10;25.40;;;17.30;99.90;;;;;;4935137;29;20840;-78
2022/09/13 04:20:30;;;;;;;28.77;26.20;;;17.30;99.90;;;;;;4935188;29;20463;-78
2022/09/13 04:22:58;;;;;;;27.60;24.80;;;17.40;99.90;;;;;;4935672;29;20528;-78
2022/09/13 04:25:27;;;;;;;28.03;25.30;;;17.40;99.90;;;;;;4935577;29;20429;-78
2022/09/13 04:27:58;;;;;;;28.40;25.80;;;17.40;99.90;;;;;;4936429;29;20813;-78
2022/09/13 04:30:27;;;;;;;29.77;27.03;;;17.40;99.90;;;;;;4936813;29;20406;-78
2022/09/13 04:32:55;;;;;;;31.73;28.63;;;17.30;99.90;;;;;;4935356;29;20441;-78
2022/09/13 04:35:23;;;;;;;29.43;26.90;;;17.30;99.90;;;;;;4936982;29;20455;-78
2022/09/13 04:37:54;;;;;;;30.03;27.33;;;17.30;99.90;;;;;;4935313;29;21022;-78
2022/09/13 04:40:23;;;;;;;29.27;26.47;;;17.30;99.90;;;;;;4935439;29;20443;-78
2022/09/13 04:42:52;;;;;;;30.17;27.40;;;17.30;99.90;;;;;;4934988;29;21021;-78
2022/09/13 04:45:21;;;;;;;30.57;27.20;;;17.30;99.90;;;;;;4935196;29;20430;-78
2022/09/13 04:47:52;;;;;;;31.97;29.00;;;17.30;99.90;;;;;;4935835;29;20463;-78
2022/09/13 04:50:20;;;;;;;32.17;29.17;;;17.30;99.90;;;;;;4935021;29;20981;-78
2022/09/13 04:52:50;;;;;;;30.53;27.57;;;17.30;99.90;;;;;;4935196;29;21038;-78
2022/09/13 04:55:18;;;;;;;30.10;27.30;;;17.30;99.90;;;;;;4936511;29;20428;-78
2022/09/13 04:57:46;;;;;;;29.90;27.00;;;17.30;99.90;;;;;;4935483;29;20460;-78
2022/09/13 05:00:16;;;;;;;30.57;27.60;;;17.30;99.90;;;;;;4935353;29;20476;-78
2022/09/13 05:02:44;;;;;;;32.73;29.47;;;17.30;99.90;;;;;;4935449;29;20443;-78
2022/09/13 05:05:13;;;;;;;30.30;27.33;;;17.30;99.90;;;;;;4936615;29;20457;-78
2022/09/13 05:07:41;;;;;;;32.20;29.20;;;17.30;99.90;;;;;;4936026;29;20455;-78
2022/09/13 05:10:10;;;;;;;30.37;27.57;;;17.30;99.90;;;;;;4935233;29;20422;-80
2022/09/13 05:12:41;;;;;;;30.40;27.57;;;17.30;99.90;;;;;;4938925;29;20448;-78
2022/09/13 05:15:10;;;;;;;28.47;25.80;;;17.30;99.90;;;;;;4938630;29;20434;-78
2022/09/13 05:17:40;;;;;;;30.83;27.73;;;17.30;99.90;;;;;;4940408;29;20794;-78
2022/09/13 05:20:09;;;;;;;31.47;28.57;;;17.30;99.90;;;;;;4938283;29;20475;-78
2022/09/13 05:22:37;;;;;;;29.20;26.57;;;17.30;99.90;;;;;;4938465;29;20475;-79
2022/09/13 05:25:06;;;;;;;28.47;25.87;;;17.30;99.90;;;;;;4938571;29;20465;-78
2022/09/13 05:27:34;;;;;;;28.10;25.40;;;17.30;99.90;;;;;;4938479;29;20429;-78
2022/09/13 05:30:03;;;;;;;27.40;24.73;;;17.30;99.90;;;;;;4938317;29;20422;-78
2022/09/13 05:32:32;;;;;;;27.07;24.40;;;17.30;99.90;;;;;;4938430;29;20452;-78
2022/09/13 05:35:01;;;;;;;28.87;25.97;;;17.30;99.90;;;;;;4939927;29;20508;-78
2022/09/13 05:37:29;;;;;;;27.37;24.67;;;17.40;99.90;;;;;;4939658;29;20420;-78
2022/09/13 05:39:58;;;;;;;29.00;26.17;;;17.40;99.90;;;;;;4938088;29;20471;-78
2022/09/13 05:42:41;;;;;;;27.57;24.97;;;17.40;99.90;;;;;;4939517;29;20402;-78
2022/09/13 05:45:09;;;;;;;27.83;25.20;;;17.40;99.90;;;;;;4938047;29;20481;-78
2022/09/13 05:47:38;;;;;;;29.00;26.10;;;17.40;99.90;;;;;;4937874;29;20454;-78
2022/09/13 05:50:09;;;;;;;26.80;24.17;;;17.40;99.90;;;;;;4940010;29;20430;-78
2022/09/13 05:52:52;;;;;;;28.67;25.87;;;17.40;99.90;;;;;;4938415;29;20499;-78
2022/09/13 05:55:20;;;;;;;28.63;25.73;;;17.40;99.90;;;;;;4938458;29;20546;-78
2022/09/13 05:57:49;;;;;;;28.20;25.27;;;17.40;99.90;;;;;;4939923;29;20439;-78
2022/09/13 06:00:18;;;;;;;27.60;25.00;;;17.40;99.90;;;;;;4938503;29;20530;-79
2022/09/13 06:02:46;;;;;;;31.27;27.67;;;17.40;99.90;;;;;;4940907;29;20450;-79
2022/09/13 06:05:15;;;;;;;30.77;27.73;;;17.40;99.90;;;;;;4941569;29;20425;-80
2022/09/13 06:07:43;;;;;;;29.80;26.97;;;17.40;99.90;;;;;;4941548;29;20495;-80
2022/09/13 06:10:12;;;;;;;29.13;26.33;;;17.50;99.90;;;;;;4940161;29;20422;-80
2022/09/13 06:12:40;;;;;;;27.37;24.90;;;17.40;99.90;;;;;;4940162;29;20455;-80
2022/09/13 06:15:10;;;;;;;28.70;25.90;;;17.50;99.90;;;;;;4939905;29;20437;-80
2022/09/13 06:17:38;;;;;;;27.57;24.90;;;17.50;99.90;;;;;;4940215;29;20436;-80
2022/09/13 06:20:08;;;;;;;27.60;24.77;;;17.50;99.90;;;;;;4940712;29;20481;-80
2022/09/13 06:22:37;;;;;;;25.73;23.13;;;17.50;99.90;;;;;;4938620;29;20451;-80
2022/09/13 06:25:06;;;;;;;27.70;25.10;;;17.50;99.90;;;;;;4939668;29;20960;-80
2022/09/13 06:27:34;;;;;;;24.73;22.33;;;17.50;99.90;;;;;;4939638;29;20939;-80
2022/09/13 06:30:02;;;;;;;25.90;23.30;;;17.50;99.90;;;;;;4939676;29;20423;-80
2022/09/13 06:32:31;;;;;;;26.63;23.83;;;17.50;99.90;;;;;;4939721;29;20471;-79
2022/09/13 06:34:59;;;;;;;26.77;24.23;;;17.50;99.90;;;;;;4939428;29;20834;-79
2022/09/13 06:37:27;;;;;;;26.00;23.50;;;17.50;99.90;;;;;;4939157;29;20443;-79
2022/09/13 06:39:57;;;;;;;28.27;25.43;;;17.50;99.90;;;;;;4941065;29;20521;-79
2022/09/13 06:42:25;;;;;;;27.13;24.40;;;17.50;99.90;;;;;;4939551;29;20475;-79
2022/09/13 06:44:53;;;;;;;26.63;24.10;;;17.50;99.90;;;;;;4939288;29;20455;-79
2022/09/13 06:47:22;;;;;;;24.10;21.93;;;17.50;99.90;;;;;;4938375;29;21046;-79
2022/09/13 06:49:50;;;;;;;26.77;24.27;;;17.50;99.90;;;;;;4938617;29;20882;-79
2022/09/13 06:52:18;;;;;;;25.97;23.43;;;17.50;99.90;;;;;;4938647;29;20475;-79
2022/09/13 06:54:46;;;;;;;23.57;21.17;;;17.60;99.90;;;;;;4939488;29;20425;-79
2022/09/13 06:57:16;;;;;;;24.00;21.50;;;17.60;99.90;;;;;;4940107;29;20969;-79
2022/09/13 06:59:44;;;;;;;25.60;23.00;;;17.60;99.90;;;;;;4938678;29;20472;-80
2022/09/13 07:02:13;;;;;;;24.70;22.27;;;17.60;99.90;;;;;;4938654;29;20464;-79
2022/09/13 07:04:41;;;;;;;24.73;22.23;;;17.60;99.90;;;;;;4938915;29;20945;-80
2022/09/13 07:07:09;;;;;;;22.93;20.73;;;17.60;99.90;;;;;;4939267;29;20451;-80
2022/09/13 07:09:37;;;;;;;24.37;22.07;;;17.70;99.90;;;;;;4940180;29;20447;-80
2022/09/13 07:12:06;;;;;;;26.37;23.77;;;17.70;99.90;;;;;;4939748;29;20558;-80
2022/09/13 07:14:36;;;;;;;25.80;23.40;;;17.70;99.90;;;;;;4939501;29;20466;-80
2022/09/13 07:17:04;;;;;;;26.60;24.17;;;17.70;99.90;;;;;;4939409;29;20447;-80
2022/09/13 07:19:32;;;;;;;28.23;25.40;;;17.80;99.90;;;;;;4939226;28;20979;-80
2022/09/13 07:22:00;;;;;;;29.13;26.40;;;17.80;99.90;;;;;;4939884;29;20475;-80
2022/09/13 07:24:28;;;;;;;28.63;25.93;;;17.80;99.90;;;;;;4940682;29;20458;-79
2022/09/13 07:26:56;;;;;;;31.53;28.63;;;17.80;99.90;;;;;;4940477;29;20869;-80
2022/09/13 07:29:24;;;;;;;29.47;26.67;;;17.90;99.90;;;;;;4939324;29;20430;-80
2022/09/13 07:31:55;;;;;;;27.90;25.40;;;17.90;99.90;;;;;;4939979;29;20515;-79
2022/09/13 07:34:25;;;;;;;28.07;25.47;;;17.90;99.90;;;;;;4938362;29;20450;-79
2022/09/13 07:36:53;;;;;;;29.03;26.33;;;18.00;99.90;;;;;;4939805;29;20450;-79
2022/09/13 07:39:23;;;;;;;27.27;24.83;;;18.00;99.90;;;;;;4939999;29;20452;-79
2022/09/13 07:41:52;;;;;;;26.37;24.03;;;18.00;99.90;;;;;;4938917;29;20445;-80
2022/09/13 07:44:21;;;;;;;25.80;23.30;;;18.10;99.90;;;;;;4941076;29;20418;-80
2022/09/13 07:46:49;;;;;;;24.37;22.07;;;18.10;99.90;;;;;;4937713;29;20487;-79
2022/09/13 07:49:19;;;;;;;23.90;21.60;;;18.10;99.90;;;;;;4937499;29;20479;-79
2022/09/13 07:51:50;;;;;;;22.70;20.50;;;18.20;99.90;;;;;;4937537;29;20566;-79
2022/09/13 07:54:19;;;;;;;23.20;21.10;;;18.20;99.90;;;;;;4937240;29;20655;-79
2022/09/13 07:56:49;;;;;;;23.50;20.30;;;18.20;99.90;;;;;;4938418;29;20451;-79
2022/09/13 07:59:18;;;;;;;22.33;19.37;;;18.30;99.90;;;;;;4937255;29;20519;-80
2022/09/13 08:01:47;;;;;;;21.30;19.27;;;18.30;99.90;;;;;;4938202;29;20490;-79
2022/09/13 08:04:18;;;;;;;20.67;18.57;;;18.30;99.90;;;;;;4936717;29;20456;-80
2022/09/13 08:06:47;;;;;;;20.40;18.50;;;18.30;99.90;;;;;;4937155;29;20880;-80
2022/09/13 08:09:17;;;;;;;18.37;16.67;;;18.30;99.90;;;;;;4937030;29;20948;-79
2022/09/13 08:11:46;;;;;;;15.47;13.83;;;18.30;99.90;;;;;;4936773;29;20467;-80
2022/09/13 08:14:17;;;;;;;15.97;14.57;;;18.40;99.90;;;;;;4936797;29;20447;-79
2022/09/13 08:16:45;;;;;;;15.60;14.07;;;18.40;99.90;;;;;;4936924;29;20459;-79
2022/09/13 08:19:15;;;;;;;14.47;13.07;;;18.40;99.90;;;;;;4937428;29;20448;-80
2022/09/13 08:21:44;;;;;;;14.03;12.63;;;18.40;99.90;;;;;;4939998;29;20498;-79
2022/09/13 08:24:16;;;;;;;16.00;14.50;;;18.40;99.90;;;;;;4940084;29;20448;-79
2022/09/13 08:26:46;;;;;;;13.87;12.50;;;18.40;99.90;;;;;;4938910;29;20476;-80
2022/09/13 08:29:15;;;;;;;13.87;12.47;;;18.40;99.90;;;;;;4939202;29;20871;-80
2022/09/13 08:31:44;;;;;;;13.40;12.20;;;18.40;99.90;;;;;;4940297;28;20459;-81
2022/09/13 08:34:14;;;;;;;11.03;9.90;;;18.40;99.90;;;;;;4942684;29;20421;-82
2022/09/13 08:36:43;;;;;;;8.13;7.00;;;18.40;99.90;;;;;;4941176;29;20994;-81
2022/09/13 08:39:12;;;;;;;8.50;4.60;;;18.30;99.90;;;;;;4941461;29;20442;-81
2022/09/13 08:42:18;;;;;;;8.80;5.40;;;18.30;99.90;;;;;;4942320;29;20483;-81
2022/09/13 08:44:48;;;;;;;8.70;4.77;;;18.20;99.90;;;;;;4939793;29;20835;-82
2022/09/13 08:47:34;;;;;;;6.67;5.03;;;18.20;99.90;;;;;;4941821;29;20504;-81
2022/09/13 08:50:11;;;;;;;6.33;5.00;;;18.20;99.90;;;;;;4939069;29;20447;-81
2022/09/13 08:52:49;;;;;;;9.77;5.23;;;18.20;99.90;;;;;;4939901;28;20475;-81
2022/09/13 08:55:25;;;;;;;10.43;6.20;;;18.20;99.90;;;;;;4940386;29;20442;-81
2022/09/13 08:58:00;;;;;;;7.27;4.90;;;18.30;99.90;;;;;;4940258;29;20473;-81
2022/09/13 09:00:35;;;;;;;5.37;3.30;;;18.40;99.90;;;;;;4940051;29;20470;-81
2022/09/13 09:03:16;;;;;;;6.27;4.20;;;18.40;99.90;;;;;;4940904;29;20966;-81
2022/09/13 09:05:47;;;;;;;8.87;4.43;;;18.40;99.90;;;;;;4941426;29;20943;-81
2022/09/13 09:08:32;;;;;;;6.40;4.20;;;18.50;99.90;;;;;;4941615;29;20483;-81
2022/09/13 09:11:04;;;;;;;10.33;4.20;;;18.60;99.90;;;;;;4941317;29;20499;-81
2022/09/13 09:13:39;;;;;;;6.13;3.10;;;18.60;99.90;;;;;;4938416;29;20944;-80
2022/09/13 09:16:26;;;;;;;7.23;3.97;;;18.70;99.90;;;;;;4939235;29;20423;-81
2022/09/13 09:18:56;;;;;;;5.90;2.50;;;18.80;99.90;;;;;;4938340;29;20920;-81
2022/09/13 09:21:25;;;;;;;5.80;2.60;;;19.00;99.90;;;;;;4939140;29;20479;-81
2022/09/13 09:23:55;;;;;;;5.07;2.23;;;19.00;99.90;;;;;;4937739;29;20451;-81
2022/09/13 09:26:25;;;;;;;8.47;2.47;;;19.10;99.90;;;;;;4937710;29;20454;-80
2022/09/13 09:28:57;;;;;;;8.03;2.40;;;19.10;99.90;;;;;;4944075;29;20424;-80
2022/09/13 09:31:36;;;;;;;7.07;2.50;;;19.20;99.90;;;;;;4940472;29;20463;-80
2022/09/13 09:34:17;;;;;;;4.40;2.40;;;19.20;99.90;;;;;;4939177;29;20845;-80
2022/09/13 09:36:49;;;;;;;5.13;2.43;;;19.20;99.90;;;;;;4940202;29;20438;-80
2022/09/13 09:39:20;;;;;;;5.80;2.73;;;19.20;99.90;;;;;;4938705;29;20428;-80
2022/09/13 09:41:48;;;;;;;5.00;2.30;;;19.20;99.90;;;;;;4937045;29;20486;-80
2022/09/13 09:44:23;;;;;;;5.13;2.50;;;19.30;99.90;;;;;;4936987;29;20451;-81
2022/09/13 09:46:56;;;;;;;6.50;1.90;;;19.30;99.90;;;;;;4938547;29;20438;-80
2022/09/13 09:52:21;;;;;;;4.67;1.90;;;19.30;99.90;;;;;;4938112;28;20468;-80
2022/09/13 09:54:50;;;;;;;4.70;1.90;;;19.40;99.90;;;;;;4936299;28;20444;-80
2022/09/13 09:57:19;;;;;;;6.63;2.37;;;19.40;99.90;;;;;;4937738;29;20526;-80
2022/09/13 09:59:49;;;;;;;6.63;2.03;;;19.40;99.90;;;;;;4940061;29;20451;-79
2022/09/13 10:02:21;;;;;;;5.40;1.33;;;19.50;99.90;;;;;;4941008;29;20475;-79
2022/09/13 10:04:59;;;;;;;4.60;1.70;;;19.50;99.90;;;;;;4939267;28;20458;-79
2022/09/13 10:07:31;;;;;;;5.07;1.97;;;19.60;99.90;;;;;;4939005;29;20451;-79
2022/09/13 10:10:05;;;;;;;4.07;1.50;;;19.60;99.90;;;;;;4940729;29;20514;-79
2022/09/13 10:12:36;;;;;;;4.97;1.40;;;19.70;99.90;;;;;;4938954;28;20483;-79
2022/09/13 10:15:16;;;;;;;4.20;1.80;;;19.80;99.90;;;;;;4940141;29;20919;-79
2022/09/13 10:18:01;;;;;;;3.50;1.30;;;19.90;99.90;;;;;;4938567;29;20451;-80
2022/09/13 10:20:30;;;;;;;4.07;1.63;;;19.90;99.90;;;;;;4938493;28;20479;-78
2022/09/13 10:23:18;;;;;;;4.87;1.40;;;20.00;99.90;;;;;;4939481;29;20480;-80
2022/09/13 10:26:01;;;;;;;4.03;1.60;;;20.10;99.90;;;;;;4938465;29;20530;-79
2022/09/13 10:28:33;;;;;;;3.80;1.40;;;20.20;99.90;;;;;;4940813;29;20514;-80
2022/09/13 10:31:07;;;;;;;5.70;1.60;;;20.20;99.90;;;;;;4940163;29;20491;-79
2022/09/13 10:33:39;;;;;;;3.73;1.20;;;20.30;99.90;;;;;;4939077;29;20818;-80
2022/09/13 10:36:15;;;;;;;6.10;1.83;;;20.40;99.90;;;;;;4939234;29;20784;-78
2022/09/13 10:39:06;;;;;;;3.30;1.30;;;20.40;99.90;;;;;;4938066;29;20542;-79
2022/09/13 10:41:40;;;;;;;3.57;1.40;;;20.50;99.90;;;;;;4938482;29;20476;-79
2022/09/13 10:44:28;;;;;;;3.13;1.10;;;20.40;99.90;;;;;;4939735;29;20911;-79
2022/09/13 10:47:01;;;;;;;4.67;1.83;;;20.50;99.90;;;;;;4939418;29;20554;-78
2022/09/13 10:49:38;;;;;;;4.10;1.30;;;20.50;99.90;;;;;;4937687;28;20451;-78
2022/09/13 10:52:29;;;;;;;4.40;1.47;;;20.50;99.90;;;;;;4938880;29;20550;-79
2022/09/13 10:55:33;;;;;;;12.50;2.77;;;20.50;99.90;;;;;;4938433;29;20455;-79
2022/09/13 10:58:17;;;;;;;4.00;1.23;;;20.60;99.90;;;;;;4937381;28;20455;-78
2022/09/13 11:01:13;;;;;;;4.83;1.33;;;20.70;99.90;;;;;;4937743;29;20490;-79
2022/09/13 11:03:58;;;;;;;4.37;1.20;;;20.70;99.90;;;;;;4938292;29;20901;-79
2022/09/13 11:06:34;;;;;;;3.90;1.33;;;20.70;99.90;;;;;;4938993;29;20428;-79
2022/09/13 11:09:10;;;;;;;4.23;1.53;;;20.70;99.90;;;;;;4938473;29;20451;-80
2022/09/13 11:11:47;;;;;;;5.47;1.13;;;20.70;99.90;;;;;;4940067;29;20514;-80
2022/09/13 11:14:32;;;;;;;4.20;1.03;;;20.70;99.90;;;;;;4939668;29;20426;-79
2022/09/13 11:17:07;;;;;;;4.80;1.30;;;20.60;99.90;;;;;;4939233;29;20454;-79
2022/09/13 11:20:17;;;;;;;2.83;0.80;;;20.60;99.90;;;;;;4937888;29;20435;-79
2022/09/13 11:23:17;;;;;;;2.87;1.20;;;20.70;99.90;;;;;;4923637;29;20471;-79
2022/09/13 11:25:57;;;;;;;4.57;1.10;;;20.70;99.90;;;;;;4937640;29;20458;-79
2022/09/13 11:28:36;;;;;;;4.80;1.10;;;20.80;99.90;;;;;;4937264;29;20463;-79
2022/09/13 11:31:16;;;;;;;4.20;1.50;;;20.90;99.90;;;;;;4937178;29;20499;-78
2022/09/13 11:33:57;;;;;;;3.80;0.90;;;20.90;99.90;;;;;;4937026;29;20523;-79
2022/09/13 11:36:48;;;;;;;3.30;1.00;;;20.90;99.90;;;;;;4937013;29;20475;-78
2022/09/13 11:39:29;;;;;;;3.97;1.10;;;21.00;99.90;;;;;;4937125;29;20800;-79
2022/09/13 11:42:05;;;;;;;5.43;1.47;;;21.10;99.90;;;;;;4936126;29;20479;-78
2022/09/13 11:44:55;;;;;;;3.27;1.07;;;21.10;99.90;;;;;;4936345;29;20614;-78
2022/09/13 11:47:33;;;;;;;4.30;1.30;;;21.30;99.90;;;;;;4936507;29;20455;-78
2022/09/13 11:50:17;;;;;;;5.27;1.30;;;21.30;99.90;;;;;;4938168;29;20515;-78
2022/09/13 11:52:57;;;;;;;3.60;1.27;;;21.40;99.90;;;;;;4938223;29;20435;-78
2022/09/13 11:55:29;;;;;;;5.03;1.67;;;21.50;99.90;;;;;;4936552;29;20451;-78
2022/09/13 11:58:01;;;;;;;3.60;1.20;;;21.60;99.90;;;;;;4936086;29;20466;-79
2022/09/13 12:00:33;;;;;;;5.27;1.77;;;21.70;99.90;;;;;;4935984;29;20836;-79
2022/09/13 12:03:10;;;;;;;4.20;1.20;;;21.70;99.90;;;;;;4936149;29;20847;-78
2022/09/13 12:05:44;;;;;;;6.40;1.70;;;21.70;99.90;;;;;;4937487;29;20459;-78
2022/09/13 12:08:21;;;;;;;4.57;1.10;;;21.70;99.90;;;;;;4936131;28;20458;-79
2022/09/13 12:10:53;;;;;;;4.27;1.50;;;21.70;99.90;;;;;;4938203;29;20478;-79
2022/09/13 12:13:25;;;;;;;4.70;1.10;;;21.80;99.90;;;;;;4936755;29;21012;-79
2022/09/13 12:15:57;;;;;;;5.13;1.73;;;21.80;99.90;;;;;;4937364;29;20451;-78
2022/09/13 12:18:29;;;;;;;8.73;1.67;;;21.80;99.90;;;;;;4938960;29;20432;-78
2022/09/13 12:21:05;;;;;;;3.80;1.47;;;21.90;99.90;;;;;;4937206;29;21049;-79
2022/09/13 12:23:38;;;;;;;4.20;1.20;;;21.90;99.90;;;;;;4937704;29;20467;-78
2022/09/13 12:26:13;;;;;;;3.40;1.00;;;22.00;99.90;;;;;;4937907;29;20506;-78
2022/09/13 12:28:45;;;;;;;6.13;1.80;;;22.10;99.90;;;;;;4936470;29;20510;-78
2022/09/13 12:31:18;;;;;;;4.90;1.33;;;22.10;99.90;;;;;;4940808;29;20463;-78
2022/09/13 12:33:48;;;;;;;3.20;0.90;;;22.10;99.90;;;;;;4937246;29;20448;-79
2022/09/13 12:36:40;;;;;;;3.33;1.10;;;22.10;99.90;;;;;;4936973;28;20455;-79
2022/09/13 12:39:31;;;;;;;3.87;1.00;;;22.00;99.90;;;;;;4937345;29;20958;-79
2022/09/13 12:42:28;;;;;;;4.80;1.27;;;22.00;99.90;;;;;;4936695;28;20479;-79
2022/09/13 12:45:17;;;;;;;5.77;1.20;;;22.00;99.80;;;;;;4936953;29;20459;-79
2022/09/13 12:48:19;;;;;;;5.80;1.23;;;21.90;99.70;;;;;;4936763;29;20887;-79
2022/09/13 12:51:08;;;;;;;4.50;1.40;;;21.80;99.50;;;;;;4914965;29;20479;-79
2022/09/13 12:53:55;;;;;;;6.30;1.70;;;21.80;99.40;;;;;;4935983;29;20473;-80
2022/09/13 12:56:43;;;;;;;3.87;1.33;;;21.80;99.50;;;;;;4937746;28;20431;-79
2022/09/13 12:59:49;;;;;;;5.00;1.33;;;21.80;99.10;;;;;;4938096;28;20427;-79
2022/09/13 13:02:34;;;;;;;3.40;1.17;;;21.70;99.00;;;;;;4908655;29;20471;-79
2022/09/13 13:05:05;;;;;;;5.83;1.43;;;21.80;99.00;;;;;;4937403;29;20903;-79
2022/09/13 13:07:37;;;;;;;5.40;1.20;;;21.80;98.90;;;;;;4935862;29;20534;-79
2022/09/13 13:10:06;;;;;;;5.20;1.27;;;21.80;98.80;;;;;;4937681;29;20439;-79
2022/09/13 13:12:38;;;;;;;4.13;1.20;;;21.90;98.70;;;;;;4935867;29;20460;-79